createdAt,value
2022-08-03T00:01:22.610Z,17.50
2022-08-03T00:03:51.749Z,17.50
2022-08-03T00:06:21.684Z,17.50
2022-08-03T00:08:51.319Z,17.60
2022-08-03T00:11:20.596Z,17.60
2022-08-03T00:13:49.948Z,17.60
2022-08-03T00:16:19.654Z,17.60
2022-08-03T00:18:51.734Z,17.50
2022-08-03T00:21:21.920Z,17.50
2022-08-03T00:23:52.765Z,17.60
2022-08-03T00:26:21.973Z,17.60
2022-08-03T00:28:50.881Z,17.50
2022-08-03T00:31:25.528Z,17.50
2022-08-03T00:34:57.878Z,17.50
2022-08-03T00:37:41.073Z,17.50
2022-08-03T00:40:13.898Z,17.40
2022-08-03T00:42:52.013Z,17.40
2022-08-03T00:45:24.734Z,17.40
2022-08-03T00:47:54.373Z,17.30
2022-08-03T00:50:25.485Z,17.40
2022-08-03T00:52:58.551Z,17.40
2022-08-03T00:55:29.878Z,17.40
2022-08-03T00:58:01.447Z,17.40
2022-08-03T01:00:30.234Z,17.40
2022-08-03T01:02:59.136Z,17.30
2022-08-03T01:05:33.844Z,17.20
2022-08-03T01:08:13.456Z,17.30
2022-08-03T01:10:55.742Z,17.30
2022-08-03T01:14:01.747Z,17.20
2022-08-03T01:16:36.803Z,17.10
2022-08-03T01:19:35.438Z,17.00
2022-08-03T01:22:31.403Z,17.00
2022-08-03T01:25:14.496Z,16.80
2022-08-03T01:28:03.656Z,16.80
2022-08-03T01:30:38.830Z,16.80
2022-08-03T01:33:16.721Z,16.70
2022-08-03T01:36:14.709Z,16.70
2022-08-03T01:38:47.816Z,16.70
2022-08-03T01:41:22.841Z,16.60
2022-08-03T01:44:28.057Z,16.50
2022-08-03T01:46:49.211Z,16.50
2022-08-03T01:49:19.429Z,16.40
2022-08-03T01:51:58.544Z,16.50
2022-08-03T01:54:37.335Z,16.50
2022-08-03T01:57:07.914Z,16.40
2022-08-03T01:59:38.600Z,16.40
2022-08-03T02:02:15.650Z,16.30
2022-08-03T02:05:04.604Z,16.40
2022-08-03T02:07:35.805Z,16.30
2022-08-03T02:10:07.804Z,16.20
2022-08-03T02:12:38.870Z,16.10
2022-08-03T02:15:09.524Z,16.10
2022-08-03T02:17:42.033Z,16.00
2022-08-03T02:20:13.453Z,15.90
2022-08-03T02:22:44.576Z,15.90
2022-08-03T02:25:16.574Z,15.80
2022-08-03T02:27:54.875Z,15.80
2022-08-03T02:30:30.194Z,15.70
2022-08-03T02:33:02.501Z,15.70
2022-08-03T02:35:36.479Z,15.70
2022-08-03T02:38:10.265Z,15.70
2022-08-03T02:40:41.782Z,15.70
2022-08-03T02:43:18.269Z,15.70
2022-08-03T02:45:51.237Z,15.60
2022-08-03T02:48:27.962Z,15.60
2022-08-03T02:51:00.734Z,15.60
2022-08-03T02:53:31.817Z,15.50
2022-08-03T02:56:03.855Z,15.50
2022-08-03T02:58:34.462Z,15.50
2022-08-03T03:01:32.794Z,15.50
2022-08-03T03:04:03.584Z,15.50
2022-08-03T03:06:32.425Z,15.50
2022-08-03T03:09:02.111Z,15.50
2022-08-03T03:11:31.739Z,15.60
2022-08-03T03:14:01.481Z,15.50
2022-08-03T03:16:32.616Z,15.50
2022-08-03T03:19:03.773Z,15.40
2022-08-03T03:21:34.648Z,15.50
2022-08-03T03:24:04.832Z,15.50
2022-08-03T03:26:34.420Z,15.40
2022-08-03T03:29:04.799Z,15.40
2022-08-03T03:31:34.010Z,15.30
2022-08-03T03:34:05.207Z,15.30
2022-08-03T03:36:35.348Z,15.30
2022-08-03T03:39:14.222Z,15.40
2022-08-03T03:41:45.461Z,15.50
2022-08-03T03:44:14.257Z,15.50
2022-08-03T03:46:43.141Z,15.50
2022-08-03T03:49:13.892Z,15.50
2022-08-03T03:51:42.483Z,15.50
2022-08-03T03:54:11.232Z,15.50
2022-08-03T03:56:39.884Z,15.50
2022-08-03T03:59:08.362Z,15.60
2022-08-03T04:01:36.926Z,15.60
2022-08-03T04:04:19.753Z,15.70
2022-08-03T04:07:07.089Z,15.80
2022-08-03T04:10:14.159Z,15.80
2022-08-03T04:12:49.998Z,15.90
2022-08-03T04:15:23.475Z,15.90
2022-08-03T04:18:18.183Z,16.10
2022-08-03T04:21:15.152Z,16.20
2022-08-03T04:23:49.964Z,16.30
2022-08-03T04:26:24.001Z,16.40
2022-08-03T04:28:55.133Z,16.50
2022-08-03T04:32:13.304Z,16.60
2022-08-03T04:34:42.088Z,16.70
2022-08-03T04:37:15.893Z,16.90
2022-08-03T04:39:49.683Z,17.00
2022-08-03T04:42:23.537Z,17.20
2022-08-03T04:44:56.554Z,17.30
2022-08-03T04:47:29.358Z,17.40
2022-08-03T04:49:58.026Z,17.60
2022-08-03T04:52:26.621Z,17.70
2022-08-03T04:54:56.591Z,17.90
2022-08-03T04:57:25.086Z,18.00
2022-08-03T05:00:02.007Z,18.10
2022-08-03T05:02:32.467Z,18.20
2022-08-03T05:05:01.400Z,18.30
2022-08-03T05:07:36.414Z,18.40
2022-08-03T05:10:14.978Z,18.50
2022-08-03T05:12:46.748Z,18.60
2022-08-03T05:15:16.054Z,18.70
2022-08-03T05:17:44.887Z,18.80
2022-08-03T05:20:13.838Z,18.90
2022-08-03T05:22:48.507Z,19.00
2022-08-03T05:25:20.600Z,19.10
2022-08-03T05:27:50.899Z,19.30
2022-08-03T05:30:26.758Z,19.40
2022-08-03T05:33:03.357Z,19.50
2022-08-03T05:35:57.413Z,19.60
2022-08-03T05:38:24.121Z,19.70
2022-08-03T05:41:21.785Z,19.80
2022-08-03T05:43:53.805Z,19.90
2022-08-03T05:46:22.996Z,20.10
2022-08-03T05:48:52.333Z,20.30
2022-08-03T05:51:21.258Z,20.40
2022-08-03T05:54:15.195Z,20.40
2022-08-03T05:56:45.516Z,20.30
2022-08-03T05:59:37.097Z,20.40
2022-08-03T06:02:02.930Z,20.40
2022-08-03T06:04:31.458Z,20.60
2022-08-03T06:07:00.028Z,20.80
2022-08-03T06:09:31.873Z,20.90
2022-08-03T06:12:20.248Z,20.90
2022-08-03T06:14:49.012Z,21.00
2022-08-03T06:17:17.537Z,21.10
2022-08-03T06:19:46.033Z,21.20
2022-08-03T06:22:14.931Z,21.40
2022-08-03T06:24:48.187Z,21.50
2022-08-03T06:27:36.454Z,21.70
2022-08-03T06:30:07.996Z,21.80
2022-08-03T06:32:36.520Z,21.90
2022-08-03T06:35:06.158Z,22.10
2022-08-03T06:37:45.788Z,22.20
2022-08-03T06:40:21.597Z,22.30
2022-08-03T06:42:51.862Z,22.40
2022-08-03T06:45:20.443Z,22.60
2022-08-03T06:47:49.129Z,22.80
2022-08-03T06:50:24.271Z,22.90
2022-08-03T06:52:54.762Z,23.00
2022-08-03T06:55:23.406Z,23.10
2022-08-03T06:57:53.776Z,23.30
2022-08-03T07:00:23.003Z,23.40
2022-08-03T07:02:56.127Z,23.50
2022-08-03T07:05:26.826Z,23.70
2022-08-03T07:07:57.786Z,23.80
2022-08-03T07:10:27.729Z,24.00
2022-08-03T07:12:57.606Z,24.20
2022-08-03T07:15:55.061Z,24.40
2022-08-03T07:18:14.729Z,24.60
2022-08-03T07:20:43.400Z,24.80
2022-08-03T07:23:17.559Z,25.00
2022-08-03T07:25:47.779Z,25.10
2022-08-03T07:28:17.754Z,25.30
2022-08-03T07:30:46.286Z,25.40
2022-08-03T07:33:15.296Z,25.50
2022-08-03T07:35:43.942Z,25.70
2022-08-03T07:38:12.498Z,25.80
2022-08-03T07:40:44.501Z,26.00
2022-08-03T07:43:15.222Z,26.10
2022-08-03T07:45:45.386Z,26.20
2022-08-03T07:48:13.864Z,26.30
2022-08-03T07:50:42.654Z,26.40
2022-08-03T07:53:11.129Z,26.60
2022-08-03T07:55:39.924Z,26.70
2022-08-03T07:58:12.440Z,26.80
2022-08-03T08:00:41.301Z,26.90
2022-08-03T08:03:11.541Z,27.00
2022-08-03T08:05:40.182Z,27.10
2022-08-03T08:08:08.980Z,27.10
2022-08-03T08:10:38.301Z,27.20
2022-08-03T08:13:07.136Z,27.30
2022-08-03T08:15:35.642Z,27.40
2022-08-03T08:18:12.861Z,27.40
2022-08-03T08:20:41.497Z,27.60
2022-08-03T08:23:37.817Z,27.80
2022-08-03T08:26:00.105Z,27.90
2022-08-03T08:28:39.587Z,28.00
2022-08-03T08:31:13.033Z,28.10
2022-08-03T08:34:03.272Z,28.20
2022-08-03T08:36:31.544Z,28.40
2022-08-03T08:39:00.079Z,28.40
2022-08-03T08:41:32.103Z,28.40
2022-08-03T08:44:01.311Z,28.40
2022-08-03T08:46:34.026Z,28.50
2022-08-03T08:49:05.022Z,28.60
2022-08-03T08:51:59.715Z,28.70
2022-08-03T08:54:28.409Z,28.70
2022-08-03T08:57:06.667Z,28.60
2022-08-03T08:59:49.026Z,28.50
2022-08-03T09:02:19.107Z,28.60
2022-08-03T09:04:50.355Z,28.70
2022-08-03T09:07:20.716Z,28.80
2022-08-03T09:10:05.917Z,29.00
2022-08-03T09:12:44.067Z,29.20
2022-08-03T09:15:25.169Z,29.30
2022-08-03T09:17:56.553Z,29.40
2022-08-03T09:20:28.716Z,29.40
2022-08-03T09:23:00.653Z,29.20
2022-08-03T09:25:32.231Z,29.20
2022-08-03T09:28:12.530Z,29.40
2022-08-03T09:31:00.806Z,29.40
2022-08-03T09:33:59.855Z,29.40
2022-08-03T09:36:42.959Z,29.60
2022-08-03T09:39:13.922Z,29.70
2022-08-03T09:41:46.143Z,29.90
2022-08-03T09:44:24.640Z,30.00
2022-08-03T09:46:57.013Z,29.90
2022-08-03T09:49:26.265Z,29.90
2022-08-03T09:52:32.529Z,30.10
2022-08-03T09:54:46.324Z,30.00
2022-08-03T09:57:25.510Z,29.70
2022-08-03T10:00:23.414Z,29.60
2022-08-03T10:03:06.032Z,29.40
2022-08-03T10:05:34.857Z,29.30
2022-08-03T10:08:17.402Z,29.20
2022-08-03T10:10:48.582Z,29.30
2022-08-03T10:13:20.008Z,29.50
2022-08-03T10:16:22.081Z,29.70
2022-08-03T10:18:39.457Z,29.90
2022-08-03T10:21:14.821Z,30.00
2022-08-03T10:23:45.663Z,29.90
2022-08-03T10:26:22.718Z,29.60
2022-08-03T10:28:54.866Z,29.30
2022-08-03T10:31:25.942Z,29.50
2022-08-03T10:33:58.574Z,29.70
2022-08-03T10:36:32.917Z,30.00
2022-08-03T10:39:04.613Z,30.20
2022-08-03T10:41:48.182Z,30.30
2022-08-03T10:44:21.435Z,30.30
2022-08-03T10:47:15.791Z,30.50
2022-08-03T10:49:46.702Z,30.30
2022-08-03T10:52:31.944Z,30.20
2022-08-03T10:55:21.395Z,30.10
2022-08-03T10:57:58.775Z,30.30
2022-08-03T11:00:30.560Z,30.30
2022-08-03T11:03:14.074Z,30.30
2022-08-03T11:05:45.571Z,30.10
2022-08-03T11:08:32.181Z,29.90
2022-08-03T11:11:25.090Z,29.70
2022-08-03T11:14:04.628Z,29.50
2022-08-03T11:16:36.177Z,29.30
2022-08-03T11:19:07.817Z,29.20
2022-08-03T11:21:58.817Z,29.10
2022-08-03T11:25:03.167Z,28.90
2022-08-03T11:27:35.147Z,28.70
2022-08-03T11:30:10.158Z,28.60
2022-08-03T11:33:01.870Z,28.60
2022-08-03T11:35:33.741Z,28.70
2022-08-03T11:38:14.794Z,28.80
2022-08-03T11:40:48.890Z,28.80
2022-08-03T11:43:48.837Z,28.70
2022-08-03T11:46:28.512Z,28.60
2022-08-03T11:49:10.814Z,28.40
2022-08-03T11:51:40.977Z,28.30
2022-08-03T11:54:11.413Z,28.20
2022-08-03T11:56:47.919Z,27.90
2022-08-03T11:59:22.015Z,27.60
2022-08-03T12:01:51.895Z,27.20
2022-08-03T12:04:20.515Z,26.70
2022-08-03T12:07:01.829Z,26.50
2022-08-03T12:09:30.416Z,26.40
2022-08-03T12:12:00.725Z,26.40
2022-08-03T12:14:48.455Z,26.40
2022-08-03T12:17:20.351Z,26.50
2022-08-03T12:19:49.078Z,26.60
2022-08-03T12:22:17.967Z,26.70
2022-08-03T12:24:47.572Z,26.80
2022-08-03T12:27:26.181Z,26.90
2022-08-03T12:29:58.979Z,26.90
2022-08-03T12:32:29.158Z,27.00
2022-08-03T12:35:01.694Z,27.00
2022-08-03T12:37:31.597Z,27.10
2022-08-03T12:40:10.162Z,26.90
2022-08-03T12:42:41.150Z,26.70
2022-08-03T12:45:32.054Z,26.70
2022-08-03T12:48:02.933Z,26.70
2022-08-03T12:50:34.380Z,26.60
2022-08-03T12:53:05.303Z,26.60
2022-08-03T12:55:57.378Z,26.60
2022-08-03T12:58:35.138Z,26.60
2022-08-03T13:01:09.785Z,26.70
2022-08-03T13:03:45.783Z,26.70
2022-08-03T13:06:21.246Z,26.70
2022-08-03T13:08:51.729Z,26.70
2022-08-03T13:11:22.760Z,26.70
2022-08-03T13:14:19.729Z,26.70
2022-08-03T13:16:50.535Z,26.80
2022-08-03T13:19:19.094Z,26.70
2022-08-03T13:22:01.615Z,26.80
2022-08-03T13:24:34.073Z,26.90
2022-08-03T13:27:22.108Z,26.90
2022-08-03T13:29:57.292Z,26.90
2022-08-03T13:32:27.298Z,26.90
2022-08-03T13:34:55.981Z,26.90
2022-08-03T13:37:24.838Z,26.90
2022-08-03T13:39:59.227Z,27.00
2022-08-03T13:42:30.838Z,27.00
2022-08-03T13:44:59.712Z,27.00
2022-08-03T13:47:30.026Z,27.10
2022-08-03T13:50:00.868Z,27.20
2022-08-03T13:52:33.039Z,27.20
2022-08-03T13:55:01.980Z,27.20
2022-08-03T13:58:05.729Z,27.30
2022-08-03T14:00:27.947Z,27.30
2022-08-03T14:03:16.593Z,27.30
2022-08-03T14:05:45.939Z,27.30
2022-08-03T14:08:14.528Z,27.40
2022-08-03T14:10:45.901Z,27.40
2022-08-03T14:13:17.411Z,27.40
2022-08-03T14:15:50.998Z,27.40
2022-08-03T14:18:28.305Z,27.40
2022-08-03T14:21:03.366Z,27.40
2022-08-03T14:23:34.628Z,27.30
2022-08-03T14:26:03.411Z,27.20
2022-08-03T14:28:42.948Z,27.20
2022-08-03T14:32:09.164Z,27.10
2022-08-03T14:34:01.573Z,27.00
2022-08-03T14:42:25.359Z,26.80
2022-08-03T14:44:58.502Z,26.80
2022-08-03T14:47:30.380Z,26.70
2022-08-03T14:50:31.468Z,26.60
2022-08-03T14:52:48.785Z,26.50
2022-08-03T14:55:17.288Z,26.50
2022-08-03T14:57:45.803Z,26.40
2022-08-03T15:00:22.293Z,26.30
2022-08-03T15:02:50.827Z,26.20
2022-08-03T15:05:20.770Z,26.20
2022-08-03T15:07:49.229Z,26.10
2022-08-03T15:10:18.682Z,26.10
2022-08-03T15:12:47.505Z,26.00
2022-08-03T15:15:16.293Z,25.90
2022-08-03T15:17:59.717Z,25.90
2022-08-03T15:20:43.255Z,25.80
2022-08-03T15:23:13.923Z,25.80
2022-08-03T15:26:04.143Z,25.80
2022-08-03T15:28:31.169Z,25.70
2022-08-03T15:30:59.883Z,25.70
2022-08-03T15:33:54.283Z,25.70
2022-08-03T15:36:24.513Z,25.60
2022-08-03T15:38:58.331Z,25.60
2022-08-03T15:41:26.951Z,25.60
2022-08-03T15:43:55.524Z,25.60
2022-08-03T15:46:29.482Z,25.60
2022-08-03T15:48:58.370Z,25.70
2022-08-03T15:51:31.288Z,25.70
2022-08-03T15:53:59.792Z,25.70
2022-08-03T15:56:28.294Z,25.70
2022-08-03T15:59:04.205Z,25.80
2022-08-03T16:01:42.903Z,25.80
2022-08-03T16:04:11.471Z,25.60
2022-08-03T16:06:41.537Z,25.50
2022-08-03T16:09:24.174Z,25.40
2022-08-03T16:11:59.479Z,25.40
2022-08-03T16:14:34.872Z,25.30
2022-08-03T16:17:06.945Z,25.30
2022-08-03T16:19:35.536Z,25.30
2022-08-03T16:22:05.675Z,25.30
2022-08-03T16:24:35.374Z,25.30
2022-08-03T16:27:06.407Z,25.30
2022-08-03T16:29:45.954Z,25.30
2022-08-03T16:32:14.730Z,25.20
2022-08-03T16:34:43.879Z,25.10
2022-08-03T16:37:37.044Z,24.90
2022-08-03T16:40:02.296Z,24.80
2022-08-03T16:42:31.000Z,24.70
2022-08-03T16:44:59.484Z,24.60
2022-08-03T16:47:28.064Z,24.50
2022-08-03T16:49:59.672Z,24.40
2022-08-03T16:53:09.121Z,24.30
2022-08-03T16:55:48.962Z,24.30
2022-08-03T16:58:34.912Z,24.20
2022-08-03T17:01:23.950Z,24.20
2022-08-03T17:04:01.766Z,24.20
2022-08-03T17:06:36.141Z,24.20
2022-08-03T17:09:09.840Z,24.20
2022-08-03T17:11:47.303Z,24.30
2022-08-03T17:14:21.609Z,24.30
2022-08-03T17:16:53.978Z,24.30
2022-08-03T17:19:48.897Z,24.30
2022-08-03T17:22:32.499Z,24.30
2022-08-03T17:25:09.474Z,24.30
2022-08-03T17:28:48.844Z,24.20
2022-08-03T17:31:23.058Z,24.20
2022-08-03T17:34:02.056Z,24.20
2022-08-03T17:37:02.292Z,24.20
2022-08-03T17:39:41.778Z,24.10
2022-08-03T17:42:29.236Z,24.10
2022-08-03T17:47:57.352Z,24.10
2022-08-03T17:50:40.339Z,24.10
2022-08-03T17:53:15.584Z,24.00
2022-08-03T17:56:42.451Z,23.90
2022-08-03T17:59:14.038Z,23.90
2022-08-03T18:02:19.920Z,23.80
2022-08-03T18:05:16.473Z,23.80
2022-08-03T18:08:00.766Z,23.70
2022-08-03T18:10:46.816Z,23.60
2022-08-03T18:13:25.507Z,23.50
2022-08-03T18:16:04.531Z,23.40
2022-08-03T18:18:40.330Z,23.30
2022-08-03T18:21:17.104Z,23.20
2022-08-03T18:24:04.692Z,23.10
2022-08-03T18:26:38.209Z,23.00
2022-08-03T18:29:23.650Z,22.90
2022-08-03T18:32:03.811Z,22.70
2022-08-03T18:34:36.386Z,22.70
2022-08-03T18:37:09.904Z,22.60
2022-08-03T18:39:49.816Z,22.50
2022-08-03T18:42:25.637Z,22.40
2022-08-03T18:44:55.964Z,22.30
2022-08-03T18:47:52.559Z,22.20
2022-08-03T18:50:31.629Z,22.10
2022-08-03T18:53:16.312Z,21.90
2022-08-03T18:56:01.618Z,21.90
2022-08-03T18:58:41.701Z,21.80
2022-08-03T19:02:00.640Z,21.70
2022-08-03T19:04:15.304Z,21.60
2022-08-03T19:06:49.096Z,21.40
2022-08-03T19:09:31.905Z,21.30
2022-08-03T19:12:13.364Z,21.20
2022-08-03T19:15:03.261Z,21.00
2022-08-03T19:17:40.597Z,20.90
2022-08-03T19:20:12.244Z,20.80
2022-08-03T19:22:45.790Z,20.70
2022-08-03T19:25:16.981Z,20.60
2022-08-03T19:27:48.182Z,20.50
2022-08-03T19:30:33.146Z,20.50
2022-08-03T19:33:02.621Z,20.40
2022-08-03T19:35:51.883Z,20.20
2022-08-03T19:38:27.400Z,20.20
2022-08-03T19:41:02.187Z,20.10
2022-08-03T19:43:49.304Z,20.10
2022-08-03T19:46:30.932Z,20.00
2022-08-03T19:49:21.278Z,19.80
2022-08-03T19:52:02.706Z,19.70
2022-08-03T19:54:45.792Z,19.70
2022-08-03T19:57:49.605Z,19.60
2022-08-03T20:00:26.429Z,19.50
2022-08-03T20:02:59.418Z,19.50
2022-08-03T20:05:29.570Z,19.40
2022-08-03T20:08:15.439Z,19.40
2022-08-03T20:10:51.313Z,19.20
2022-08-03T20:13:21.984Z,19.20
2022-08-03T20:15:56.919Z,19.20
2022-08-03T20:18:25.640Z,19.10
2022-08-03T20:20:58.605Z,19.10
2022-08-03T20:23:39.683Z,19.00
2022-08-03T20:26:31.479Z,18.90
2022-08-03T20:29:10.015Z,18.80
2022-08-03T20:31:38.941Z,18.70
2022-08-03T20:34:09.128Z,18.70
2022-08-03T20:36:38.215Z,18.70
2022-08-03T20:39:09.203Z,18.60
2022-08-03T20:41:38.956Z,18.60
2022-08-03T20:44:08.276Z,18.60
2022-08-03T20:46:53.079Z,18.40
2022-08-03T20:49:25.614Z,18.40
2022-08-03T20:51:55.162Z,18.50
2022-08-03T20:54:29.201Z,18.50
2022-08-03T20:56:59.877Z,18.40
2022-08-03T20:59:38.451Z,18.40
2022-08-03T21:02:19.780Z,18.50
2022-08-03T21:05:03.319Z,18.40
2022-08-03T21:08:05.584Z,18.40
2022-08-03T21:10:38.157Z,18.30
2022-08-03T21:12:55.019Z,24.10
2022-08-03T21:13:17.754Z,18.30
2022-08-03T21:16:07.146Z,18.30
2022-08-03T21:18:47.057Z,18.30
2022-08-03T21:21:19.423Z,18.30
2022-08-03T21:23:52.684Z,18.30
2022-08-03T21:26:24.992Z,18.30
2022-08-03T21:28:57.213Z,18.30
2022-08-03T21:31:27.085Z,18.30
2022-08-03T21:33:58.975Z,18.20
2022-08-03T21:36:29.281Z,18.20
2022-08-03T21:39:03.776Z,18.20
2022-08-03T21:41:34.189Z,18.10
2022-08-03T21:44:04.951Z,18.10
2022-08-03T21:46:38.538Z,18.00
2022-08-03T21:50:05.893Z,18.00
2022-08-03T21:52:00.885Z,17.90
2022-08-03T21:54:55.706Z,18.00
2022-08-03T21:57:27.252Z,17.90
2022-08-03T21:59:58.297Z,17.90
2022-08-03T22:02:55.467Z,17.90
2022-08-03T22:05:42.926Z,17.90
2022-08-03T22:08:14.992Z,17.80
2022-08-03T22:10:59.041Z,17.80
2022-08-03T22:13:44.057Z,17.70
2022-08-03T22:16:15.312Z,17.70
2022-08-03T22:19:09.167Z,17.70
2022-08-03T22:21:38.448Z,17.70
2022-08-03T22:24:08.298Z,17.60
2022-08-03T22:26:41.003Z,17.60
2022-08-03T22:29:11.070Z,17.60
2022-08-03T22:31:57.350Z,17.60
2022-08-03T22:34:29.606Z,17.60
2022-08-03T22:37:04.550Z,17.50
2022-08-03T22:39:33.467Z,17.50
2022-08-03T22:42:06.286Z,17.50
2022-08-03T22:44:37.417Z,17.50
2022-08-03T22:47:07.164Z,17.40
2022-08-03T22:50:32.916Z,17.40
2022-08-03T22:52:56.114Z,17.30
2022-08-03T22:55:26.219Z,17.40
2022-08-03T22:57:55.640Z,17.30
2022-08-03T23:00:26.611Z,17.30
2022-08-03T23:03:13.285Z,17.30
2022-08-03T23:06:02.593Z,17.20
2022-08-03T23:08:34.634Z,17.10
2022-08-03T23:11:08.608Z,17.00
2022-08-03T23:13:40.543Z,17.10
2022-08-03T23:16:11.021Z,17.10
2022-08-03T23:18:43.904Z,17.10
2022-08-03T23:21:15.125Z,17.00
2022-08-03T23:23:45.065Z,17.00
2022-08-03T23:26:15.961Z,16.90
2022-08-03T23:28:48.196Z,16.90
2022-08-03T23:31:20.149Z,16.90
2022-08-03T23:34:16.734Z,16.90
2022-08-03T23:36:49.543Z,16.80
2022-08-03T23:39:21.234Z,16.80
2022-08-03T23:41:51.523Z,16.80
2022-08-03T23:44:23.260Z,16.80
2022-08-03T23:46:53.628Z,16.70
2022-08-03T23:49:22.983Z,16.80
2022-08-03T23:52:03.782Z,16.80
2022-08-03T23:54:52.777Z,16.80
2022-08-03T23:57:33.745Z,16.80
